sensor_id;sensor_type;location;lat;lon;timestamp;P1;durP1;ratioP1;P2;durP2;ratioP2
71413;SDS011;59226;53.212;5.728;2023-02-28T00:01:04;3.47;;;0.93;;
71413;SDS011;59226;53.212;5.728;2023-02-28T00:03:30;1.17;;;0.50;;
71413;SDS011;59226;53.212;5.728;2023-02-28T00:05:55;0.37;;;0.20;;
71413;SDS011;59226;53.212;5.728;2023-02-28T00:08:20;1.03;;;0.67;;
71413;SDS011;59226;53.212;5.728;2023-02-28T00:10:45;0.87;;;0.47;;
71413;SDS011;59226;53.212;5.728;2023-02-28T00:13:11;1.10;;;0.50;;
71413;SDS011;59226;53.212;5.728;2023-02-28T00:15:36;0.93;;;0.33;;
71413;SDS011;59226;53.212;5.728;2023-02-28T00:18:02;1.50;;;0.43;;
71413;SDS011;59226;53.212;5.728;2023-02-28T00:20:28;1.85;;;0.50;;
71413;SDS011;59226;53.212;5.728;2023-02-28T00:22:53;1.23;;;0.80;;
71413;SDS011;59226;53.212;5.728;2023-02-28T00:25:20;1.07;;;0.40;;
71413;SDS011;59226;53.212;5.728;2023-02-28T00:27:45;0.87;;;0.40;;
71413;SDS011;59226;53.212;5.728;2023-02-28T00:30:12;1.02;;;0.50;;
71413;SDS011;59226;53.212;5.728;2023-02-28T00:32:38;7.13;;;0.93;;
71413;SDS011;59226;53.212;5.728;2023-02-28T00:35:03;1.97;;;0.73;;
71413;SDS011;59226;53.212;5.728;2023-02-28T00:37:29;2.07;;;0.53;;
71413;SDS011;59226;53.212;5.728;2023-02-28T00:39:54;0.60;;;0.30;;
71413;SDS011;59226;53.212;5.728;2023-02-28T00:42:19;0.70;;;0.40;;
71413;SDS011;59226;53.212;5.728;2023-02-28T00:44:44;1.70;;;0.70;;
71413;SDS011;59226;53.212;5.728;2023-02-28T00:47:10;5.50;;;0.57;;
71413;SDS011;59226;53.212;5.728;2023-02-28T00:49:35;0.80;;;0.50;;
71413;SDS011;59226;53.212;5.728;2023-02-28T00:52:00;0.47;;;0.27;;
71413;SDS011;59226;53.212;5.728;2023-02-28T00:54:25;0.77;;;0.40;;
71413;SDS011;59226;53.212;5.728;2023-02-28T00:56:51;10.17;;;0.53;;
71413;SDS011;59226;53.212;5.728;2023-02-28T00:59:16;1.30;;;0.40;;
71413;SDS011;59226;53.212;5.728;2023-02-28T01:01:43;1.40;;;0.75;;
71413;SDS011;59226;53.212;5.728;2023-02-28T01:04:09;2.40;;;1.77;;
71413;SDS011;59226;53.212;5.728;2023-02-28T01:06:34;1.35;;;0.60;;
71413;SDS011;59226;53.212;5.728;2023-02-28T01:09:00;2.35;;;1.02;;
71413;SDS011;59226;53.212;5.728;2023-02-28T01:11:26;0.97;;;0.40;;
71413;SDS011;59226;53.212;5.728;2023-02-28T01:13:51;0.40;;;0.30;;
71413;SDS011;59226;53.212;5.728;2023-02-28T01:16:16;4.20;;;0.63;;
71413;SDS011;59226;53.212;5.728;2023-02-28T01:18:42;0.97;;;0.40;;
71413;SDS011;59226;53.212;5.728;2023-02-28T01:21:08;0.88;;;0.50;;
71413;SDS011;59226;53.212;5.728;2023-02-28T01:23:34;1.83;;;0.50;;
71413;SDS011;59226;53.212;5.728;2023-02-28T01:26:06;1.00;;;0.50;;
71413;SDS011;59226;53.212;5.728;2023-02-28T01:28:31;1.10;;;0.40;;
71413;SDS011;59226;53.212;5.728;2023-02-28T01:30:56;1.67;;;0.70;;
71413;SDS011;59226;53.212;5.728;2023-02-28T01:33:21;1.33;;;0.63;;
71413;SDS011;59226;53.212;5.728;2023-02-28T01:35:47;0.60;;;0.40;;
71413;SDS011;59226;53.212;5.728;2023-02-28T01:38:12;1.83;;;0.63;;
71413;SDS011;59226;53.212;5.728;2023-02-28T01:40:37;2.03;;;0.70;;
71413;SDS011;59226;53.212;5.728;2023-02-28T01:43:02;1.03;;;0.50;;
71413;SDS011;59226;53.212;5.728;2023-02-28T01:45:31;1.27;;;0.50;;
71413;SDS011;59226;53.212;5.728;2023-02-28T01:48:00;2.15;;;0.77;;
71413;SDS011;59226;53.212;5.728;2023-02-28T01:50:28;1.50;;;0.67;;
71413;SDS011;59226;53.212;5.728;2023-02-28T01:52:55;0.88;;;0.32;;
71413;SDS011;59226;53.212;5.728;2023-02-28T01:55:22;0.90;;;0.40;;
71413;SDS011;59226;53.212;5.728;2023-02-28T01:57:49;1.90;;;0.60;;
71413;SDS011;59226;53.212;5.728;2023-02-28T02:00:16;2.70;;;0.70;;
71413;SDS011;59226;53.212;5.728;2023-02-28T02:02:45;1.13;;;0.20;;
71413;SDS011;59226;53.212;5.728;2023-02-28T02:05:18;1.00;;;0.38;;
71413;SDS011;59226;53.212;5.728;2023-02-28T02:07:45;1.02;;;0.40;;
71413;SDS011;59226;53.212;5.728;2023-02-28T02:10:13;0.93;;;0.28;;
71413;SDS011;59226;53.212;5.728;2023-02-28T02:12:55;0.52;;;0.30;;
71413;SDS011;59226;53.212;5.728;2023-02-28T02:16:04;0.87;;;0.33;;
71413;SDS011;59226;53.212;5.728;2023-02-28T02:18:26;0.82;;;0.40;;
71413;SDS011;59226;53.212;5.728;2023-02-28T02:21:01;0.50;;;0.30;;
71413;SDS011;59226;53.212;5.728;2023-02-28T02:23:42;0.77;;;0.60;;
71413;SDS011;59226;53.212;5.728;2023-02-28T02:27:15;2.20;;;0.30;;
71413;SDS011;59226;53.212;5.728;2023-02-28T02:29:20;0.30;;;0.20;;
71413;SDS011;59226;53.212;5.728;2023-02-28T02:32:09;3.70;;;0.47;;
71413;SDS011;59226;53.212;5.728;2023-02-28T02:34:45;3.13;;;0.35;;
71413;SDS011;59226;53.212;5.728;2023-02-28T02:37:32;0.77;;;0.43;;
71413;SDS011;59226;53.212;5.728;2023-02-28T02:42:39;1.40;;;0.70;;
71413;SDS011;59226;53.212;5.728;2023-02-28T02:45:09;0.50;;;0.30;;
71413;SDS011;59226;53.212;5.728;2023-02-28T02:47:35;3.33;;;0.85;;
71413;SDS011;59226;53.212;5.728;2023-02-28T02:50:02;1.08;;;0.35;;
71413;SDS011;59226;53.212;5.728;2023-02-28T02:52:32;0.50;;;0.30;;
71413;SDS011;59226;53.212;5.728;2023-02-28T02:54:59;0.83;;;0.40;;
71413;SDS011;59226;53.212;5.728;2023-02-28T02:57:36;0.65;;;0.30;;
71413;SDS011;59226;53.212;5.728;2023-02-28T03:00:03;0.85;;;0.43;;
71413;SDS011;59226;53.212;5.728;2023-02-28T03:02:30;8.38;;;0.63;;
71413;SDS011;59226;53.212;5.728;2023-02-28T03:04:59;0.98;;;0.40;;
71413;SDS011;59226;53.212;5.728;2023-02-28T03:07:26;6.60;;;0.57;;
71413;SDS011;59226;53.212;5.728;2023-02-28T03:09:52;5.18;;;0.65;;
71413;SDS011;59226;53.212;5.728;2023-02-28T03:12:17;1.30;;;0.40;;
71413;SDS011;59226;53.212;5.728;2023-02-28T03:14:56;3.93;;;0.83;;
71413;SDS011;59226;53.212;5.728;2023-02-28T03:17:35;0.95;;;0.50;;
71413;SDS011;59226;53.212;5.728;2023-02-28T03:20:09;1.02;;;0.35;;
71413;SDS011;59226;53.212;5.728;2023-02-28T03:25:37;0.50;;;0.30;;
71413;SDS011;59226;53.212;5.728;2023-02-28T03:30:36;5.18;;;0.35;;
71413;SDS011;59226;53.212;5.728;2023-02-28T03:33:05;0.50;;;0.30;;
71413;SDS011;59226;53.212;5.728;2023-02-28T03:35:32;0.20;;;0.20;;
71413;SDS011;59226;53.212;5.728;2023-02-28T03:38:10;3.83;;;0.63;;
71413;SDS011;59226;53.212;5.728;2023-02-28T03:40:38;0.50;;;0.30;;
71413;SDS011;59226;53.212;5.728;2023-02-28T03:43:08;1.08;;;0.60;;
71413;SDS011;59226;53.212;5.728;2023-02-28T03:45:35;0.40;;;0.30;;
71413;SDS011;59226;53.212;5.728;2023-02-28T03:50:55;6.95;;;0.70;;
71413;SDS011;59226;53.212;5.728;2023-02-28T03:56:11;1.23;;;0.47;;
71413;SDS011;59226;53.212;5.728;2023-02-28T03:58:41;1.02;;;0.55;;
71413;SDS011;59226;53.212;5.728;2023-02-28T04:01:09;0.60;;;0.30;;
71413;SDS011;59226;53.212;5.728;2023-02-28T04:03:36;0.97;;;0.57;;
71413;SDS011;59226;53.212;5.728;2023-02-28T04:06:02;1.00;;;0.68;;
71413;SDS011;59226;53.212;5.728;2023-02-28T04:08:27;1.10;;;0.32;;
71413;SDS011;59226;53.212;5.728;2023-02-28T04:10:55;0.40;;;0.20;;
71413;SDS011;59226;53.212;5.728;2023-02-28T04:13:22;0.20;;;0.10;;
71413;SDS011;59226;53.212;5.728;2023-02-28T04:15:47;1.03;;;0.30;;
71413;SDS011;59226;53.212;5.728;2023-02-28T04:18:13;1.80;;;0.77;;
71413;SDS011;59226;53.212;5.728;2023-02-28T04:20:38;1.07;;;0.40;;
71413;SDS011;59226;53.212;5.728;2023-02-28T04:23:03;0.20;;;0.20;;
71413;SDS011;59226;53.212;5.728;2023-02-28T04:25:28;0.23;;;0.20;;
71413;SDS011;59226;53.212;5.728;2023-02-28T04:27:53;4.90;;;0.80;;
71413;SDS011;59226;53.212;5.728;2023-02-28T04:30:19;0.40;;;0.20;;
71413;SDS011;59226;53.212;5.728;2023-02-28T04:32:44;6.87;;;0.37;;
71413;SDS011;59226;53.212;5.728;2023-02-28T04:35:09;0.60;;;0.30;;
71413;SDS011;59226;53.212;5.728;2023-02-28T04:37:34;0.50;;;0.20;;
71413;SDS011;59226;53.212;5.728;2023-02-28T04:40:02;0.85;;;0.57;;
71413;SDS011;59226;53.212;5.728;2023-02-28T04:42:27;5.33;;;0.37;;
71413;SDS011;59226;53.212;5.728;2023-02-28T04:45:00;0.28;;;0.20;;
71413;SDS011;59226;53.212;5.728;2023-02-28T04:47:25;0.20;;;0.20;;
71413;SDS011;59226;53.212;5.728;2023-02-28T04:49:50;0.60;;;0.23;;
71413;SDS011;59226;53.212;5.728;2023-02-28T04:52:15;0.37;;;0.30;;
71413;SDS011;59226;53.212;5.728;2023-02-28T04:54:40;1.33;;;0.23;;
71413;SDS011;59226;53.212;5.728;2023-02-28T04:57:06;0.60;;;0.30;;
71413;SDS011;59226;53.212;5.728;2023-02-28T04:59:31;0.57;;;0.30;;
71413;SDS011;59226;53.212;5.728;2023-02-28T05:01:56;0.80;;;0.40;;
71413;SDS011;59226;53.212;5.728;2023-02-28T05:04:21;0.50;;;0.20;;
71413;SDS011;59226;53.212;5.728;2023-02-28T05:06:47;0.40;;;0.20;;
71413;SDS011;59226;53.212;5.728;2023-02-28T05:09:12;1.10;;;0.40;;
71413;SDS011;59226;53.212;5.728;2023-02-28T05:11:37;0.10;;;0.10;;
71413;SDS011;59226;53.212;5.728;2023-02-28T05:14:05;0.32;;;0.30;;
71413;SDS011;59226;53.212;5.728;2023-02-28T05:16:31;0.20;;;0.10;;
71413;SDS011;59226;53.212;5.728;2023-02-28T05:18:56;0.35;;;0.20;;
71413;SDS011;59226;53.212;5.728;2023-02-28T05:23:50;0.55;;;0.45;;
71413;SDS011;59226;53.212;5.728;2023-02-28T05:26:15;0.60;;;0.37;;
71413;SDS011;59226;53.212;5.728;2023-02-28T05:28:40;1.63;;;0.27;;
71413;SDS011;59226;53.212;5.728;2023-02-28T05:31:05;0.20;;;0.20;;
71413;SDS011;59226;53.212;5.728;2023-02-28T05:33:31;0.30;;;0.30;;
71413;SDS011;59226;53.212;5.728;2023-02-28T05:35:56;0.73;;;0.30;;
71413;SDS011;59226;53.212;5.728;2023-02-28T05:38:21;0.30;;;0.30;;
71413;SDS011;59226;53.212;5.728;2023-02-28T05:40:46;0.47;;;0.20;;
71413;SDS011;59226;53.212;5.728;2023-02-28T05:43:12;0.20;;;0.10;;
71413;SDS011;59226;53.212;5.728;2023-02-28T05:45:37;0.20;;;0.20;;
71413;SDS011;59226;53.212;5.728;2023-02-28T05:48:02;0.63;;;0.30;;
71413;SDS011;59226;53.212;5.728;2023-02-28T05:50:27;0.80;;;0.40;;
71413;SDS011;59226;53.212;5.728;2023-02-28T05:52:53;12.37;;;0.43;;
71413;SDS011;59226;53.212;5.728;2023-02-28T05:55:18;0.30;;;0.20;;
71413;SDS011;59226;53.212;5.728;2023-02-28T05:57:43;0.50;;;0.30;;
71413;SDS011;59226;53.212;5.728;2023-02-28T06:00:09;0.13;;;0.10;;
71413;SDS011;59226;53.212;5.728;2023-02-28T06:02:34;1.27;;;0.30;;
71413;SDS011;59226;53.212;5.728;2023-02-28T06:05:00;0.20;;;0.17;;
71413;SDS011;59226;53.212;5.728;2023-02-28T06:07:25;1.20;;;0.40;;
71413;SDS011;59226;53.212;5.728;2023-02-28T06:09:50;0.30;;;0.23;;
71413;SDS011;59226;53.212;5.728;2023-02-28T06:12:15;3.40;;;0.50;;
71413;SDS011;59226;53.212;5.728;2023-02-28T06:14:40;0.50;;;0.30;;
71413;SDS011;59226;53.212;5.728;2023-02-28T06:17:06;5.00;;;0.67;;
71413;SDS011;59226;53.212;5.728;2023-02-28T06:19:31;0.30;;;0.10;;
71413;SDS011;59226;53.212;5.728;2023-02-28T06:21:56;0.53;;;0.27;;
71413;SDS011;59226;53.212;5.728;2023-02-28T06:24:22;0.50;;;0.40;;
71413;SDS011;59226;53.212;5.728;2023-02-28T06:26:48;0.50;;;0.30;;
71413;SDS011;59226;53.212;5.728;2023-02-28T06:29:13;0.77;;;0.20;;
71413;SDS011;59226;53.212;5.728;2023-02-28T06:31:41;0.40;;;0.30;;
71413;SDS011;59226;53.212;5.728;2023-02-28T06:34:07;0.80;;;0.40;;
71413;SDS011;59226;53.212;5.728;2023-02-28T06:36:32;5.13;;;1.83;;
71413;SDS011;59226;53.212;5.728;2023-02-28T06:38:57;2.93;;;0.43;;
71413;SDS011;59226;53.212;5.728;2023-02-28T06:41:26;2.90;;;0.90;;
71413;SDS011;59226;53.212;5.728;2023-02-28T06:43:52;2.40;;;0.82;;
71413;SDS011;59226;53.212;5.728;2023-02-28T06:46:17;3.23;;;1.57;;
71413;SDS011;59226;53.212;5.728;2023-02-28T06:48:43;2.53;;;1.00;;
71413;SDS011;59226;53.212;5.728;2023-02-28T06:51:10;1.90;;;0.90;;
71413;SDS011;59226;53.212;5.728;2023-02-28T06:53:35;2.35;;;1.10;;
71413;SDS011;59226;53.212;5.728;2023-02-28T06:56:08;2.70;;;1.00;;
71413;SDS011;59226;53.212;5.728;2023-02-28T06:58:34;11.43;;;1.17;;
71413;SDS011;59226;53.212;5.728;2023-02-28T07:00:59;2.47;;;0.85;;
71413;SDS011;59226;53.212;5.728;2023-02-28T07:03:25;2.17;;;0.80;;
71413;SDS011;59226;53.212;5.728;2023-02-28T07:05:50;2.40;;;1.07;;
71413;SDS011;59226;53.212;5.728;2023-02-28T07:08:16;0.87;;;0.43;;
71413;SDS011;59226;53.212;5.728;2023-02-28T07:10:41;3.13;;;1.43;;
71413;SDS011;59226;53.212;5.728;2023-02-28T07:13:06;1.43;;;0.63;;
71413;SDS011;59226;53.212;5.728;2023-02-28T07:15:32;3.37;;;1.47;;
71413;SDS011;59226;53.212;5.728;2023-02-28T07:17:57;3.37;;;1.57;;
71413;SDS011;59226;53.212;5.728;2023-02-28T07:20:23;3.10;;;1.37;;
71413;SDS011;59226;53.212;5.728;2023-02-28T07:22:49;2.78;;;1.40;;
71413;SDS011;59226;53.212;5.728;2023-02-28T07:25:20;3.78;;;1.63;;
71413;SDS011;59226;53.212;5.728;2023-02-28T07:27:45;2.33;;;1.13;;
71413;SDS011;59226;53.212;5.728;2023-02-28T07:30:11;2.63;;;1.30;;
71413;SDS011;59226;53.212;5.728;2023-02-28T07:32:37;3.65;;;1.60;;
71413;SDS011;59226;53.212;5.728;2023-02-28T07:35:02;3.00;;;1.23;;
71413;SDS011;59226;53.212;5.728;2023-02-28T07:37:28;2.50;;;0.97;;
71413;SDS011;59226;53.212;5.728;2023-02-28T07:39:56;2.85;;;1.30;;
71413;SDS011;59226;53.212;5.728;2023-02-28T07:42:21;3.40;;;1.27;;
71413;SDS011;59226;53.212;5.728;2023-02-28T07:44:46;5.90;;;2.13;;
71413;SDS011;59226;53.212;5.728;2023-02-28T07:47:11;5.63;;;2.03;;
71413;SDS011;59226;53.212;5.728;2023-02-28T07:49:37;3.77;;;1.47;;
71413;SDS011;59226;53.212;5.728;2023-02-28T07:52:05;3.07;;;1.40;;
71413;SDS011;59226;53.212;5.728;2023-02-28T07:54:31;3.22;;;1.52;;
71413;SDS011;59226;53.212;5.728;2023-02-28T07:56:56;4.17;;;1.50;;
71413;SDS011;59226;53.212;5.728;2023-02-28T07:59:23;3.95;;;1.10;;
71413;SDS011;59226;53.212;5.728;2023-02-28T08:01:48;3.53;;;1.73;;
71413;SDS011;59226;53.212;5.728;2023-02-28T08:04:15;4.20;;;1.95;;
71413;SDS011;59226;53.212;5.728;2023-02-28T08:06:40;3.90;;;1.70;;
71413;SDS011;59226;53.212;5.728;2023-02-28T08:09:06;3.53;;;1.40;;
71413;SDS011;59226;53.212;5.728;2023-02-28T08:11:31;1.73;;;1.07;;
71413;SDS011;59226;53.212;5.728;2023-02-28T08:13:56;2.33;;;1.00;;
71413;SDS011;59226;53.212;5.728;2023-02-28T08:16:21;3.07;;;1.40;;
71413;SDS011;59226;53.212;5.728;2023-02-28T08:18:56;4.13;;;1.47;;
71413;SDS011;59226;53.212;5.728;2023-02-28T08:21:21;2.25;;;1.38;;
71413;SDS011;59226;53.212;5.728;2023-02-28T08:23:47;4.17;;;1.47;;
71413;SDS011;59226;53.212;5.728;2023-02-28T08:26:13;3.38;;;1.77;;
71413;SDS011;59226;53.212;5.728;2023-02-28T08:28:38;3.40;;;1.53;;
71413;SDS011;59226;53.212;5.728;2023-02-28T08:31:10;3.15;;;1.33;;
71413;SDS011;59226;53.212;5.728;2023-02-28T08:33:37;3.78;;;2.15;;
71413;SDS011;59226;53.212;5.728;2023-02-28T08:36:04;4.07;;;2.17;;
71413;SDS011;59226;53.212;5.728;2023-02-28T08:38:29;3.55;;;1.70;;
71413;SDS011;59226;53.212;5.728;2023-02-28T08:40:57;5.40;;;1.90;;
71413;SDS011;59226;53.212;5.728;2023-02-28T08:43:23;4.87;;;2.37;;
71413;SDS011;59226;53.212;5.728;2023-02-28T08:45:50;10.60;;;2.40;;
71413;SDS011;59226;53.212;5.728;2023-02-28T08:48:16;4.38;;;2.25;;
71413;SDS011;59226;53.212;5.728;2023-02-28T08:50:41;3.33;;;1.53;;
71413;SDS011;59226;53.212;5.728;2023-02-28T08:53:06;4.17;;;2.13;;
71413;SDS011;59226;53.212;5.728;2023-02-28T08:55:31;2.60;;;1.53;;
71413;SDS011;59226;53.212;5.728;2023-02-28T08:57:57;5.43;;;1.87;;
71413;SDS011;59226;53.212;5.728;2023-02-28T09:00:23;6.90;;;1.80;;
71413;SDS011;59226;53.212;5.728;2023-02-28T09:02:48;7.73;;;2.03;;
71413;SDS011;59226;53.212;5.728;2023-02-28T09:05:13;4.53;;;2.37;;
71413;SDS011;59226;53.212;5.728;2023-02-28T09:07:38;4.77;;;1.60;;
71413;SDS011;59226;53.212;5.728;2023-02-28T09:10:04;5.43;;;1.50;;
71413;SDS011;59226;53.212;5.728;2023-02-28T09:12:31;6.73;;;2.40;;
71413;SDS011;59226;53.212;5.728;2023-02-28T09:14:57;3.03;;;1.63;;
71413;SDS011;59226;53.212;5.728;2023-02-28T09:17:22;3.17;;;1.23;;
71413;SDS011;59226;53.212;5.728;2023-02-28T09:19:48;7.80;;;2.37;;
71413;SDS011;59226;53.212;5.728;2023-02-28T09:22:14;4.88;;;1.80;;
71413;SDS011;59226;53.212;5.728;2023-02-28T09:24:39;3.90;;;1.97;;
71413;SDS011;59226;53.212;5.728;2023-02-28T09:27:04;3.80;;;1.87;;
71413;SDS011;59226;53.212;5.728;2023-02-28T09:29:30;5.43;;;2.40;;
71413;SDS011;59226;53.212;5.728;2023-02-28T09:31:56;4.30;;;1.90;;
71413;SDS011;59226;53.212;5.728;2023-02-28T09:34:23;7.82;;;2.60;;
71413;SDS011;59226;53.212;5.728;2023-02-28T09:36:49;3.97;;;1.80;;
71413;SDS011;59226;53.212;5.728;2023-02-28T09:39:15;5.05;;;2.45;;
71413;SDS011;59226;53.212;5.728;2023-02-28T09:41:42;5.60;;;1.90;;
71413;SDS011;59226;53.212;5.728;2023-02-28T09:44:20;4.30;;;1.47;;
71413;SDS011;59226;53.212;5.728;2023-02-28T09:46:48;6.15;;;2.65;;
71413;SDS011;59226;53.212;5.728;2023-02-28T09:49:16;4.55;;;1.77;;
71413;SDS011;59226;53.212;5.728;2023-02-28T09:54:13;5.43;;;2.28;;
71413;SDS011;59226;53.212;5.728;2023-02-28T09:56:42;5.17;;;2.03;;
71413;SDS011;59226;53.212;5.728;2023-02-28T09:59:14;3.60;;;1.73;;
71413;SDS011;59226;53.212;5.728;2023-02-28T10:01:50;6.13;;;2.17;;
71413;SDS011;59226;53.212;5.728;2023-02-28T10:06:44;4.80;;;1.70;;
71413;SDS011;59226;53.212;5.728;2023-02-28T10:09:13;4.10;;;1.50;;
71413;SDS011;59226;53.212;5.728;2023-02-28T10:11:40;6.15;;;2.03;;
71413;SDS011;59226;53.212;5.728;2023-02-28T10:16:45;5.25;;;1.98;;
71413;SDS011;59226;53.212;5.728;2023-02-28T10:21:42;4.47;;;1.63;;
71413;SDS011;59226;53.212;5.728;2023-02-28T10:26:46;4.85;;;1.35;;
71413;SDS011;59226;53.212;5.728;2023-02-28T10:29:12;5.28;;;2.38;;
71413;SDS011;59226;53.212;5.728;2023-02-28T10:31:37;5.07;;;1.60;;
71413;SDS011;59226;53.212;5.728;2023-02-28T10:34:03;4.70;;;1.80;;
71413;SDS011;59226;53.212;5.728;2023-02-28T10:36:31;2.90;;;1.67;;
71413;SDS011;59226;53.212;5.728;2023-02-28T10:38:56;5.73;;;1.67;;
71413;SDS011;59226;53.212;5.728;2023-02-28T10:41:29;4.70;;;1.80;;
71413;SDS011;59226;53.212;5.728;2023-02-28T10:44:40;4.35;;;1.67;;
71413;SDS011;59226;53.212;5.728;2023-02-28T10:46:40;6.88;;;1.95;;
71413;SDS011;59226;53.212;5.728;2023-02-28T10:49:12;3.55;;;1.73;;
71413;SDS011;59226;53.212;5.728;2023-02-28T10:51:38;4.23;;;1.90;;
71413;SDS011;59226;53.212;5.728;2023-02-28T10:54:04;2.55;;;1.17;;
71413;SDS011;59226;53.212;5.728;2023-02-28T10:56:30;4.80;;;1.77;;
71413;SDS011;59226;53.212;5.728;2023-02-28T11:01:38;13.57;;;1.85;;
71413;SDS011;59226;53.212;5.728;2023-02-28T11:04:17;3.60;;;1.30;;
71413;SDS011;59226;53.212;5.728;2023-02-28T11:06:43;3.78;;;1.73;;
71413;SDS011;59226;53.212;5.728;2023-02-28T11:09:21;3.77;;;1.43;;
71413;SDS011;59226;53.212;5.728;2023-02-28T11:11:48;4.47;;;1.83;;
71413;SDS011;59226;53.212;5.728;2023-02-28T11:14:18;2.97;;;1.20;;
71413;SDS011;59226;53.212;5.728;2023-02-28T11:16:44;3.05;;;1.83;;
71413;SDS011;59226;53.212;5.728;2023-02-28T11:19:16;2.63;;;1.33;;
71413;SDS011;59226;53.212;5.728;2023-02-28T11:21:45;3.58;;;1.63;;
71413;SDS011;59226;53.212;5.728;2023-02-28T11:26:39;2.90;;;1.17;;
71413;SDS011;59226;53.212;5.728;2023-02-28T11:29:12;3.67;;;1.42;;
71413;SDS011;59226;53.212;5.728;2023-02-28T11:31:41;3.72;;;1.42;;
71413;SDS011;59226;53.212;5.728;2023-02-28T11:34:25;4.13;;;1.17;;
71413;SDS011;59226;53.212;5.728;2023-02-28T11:36:53;3.13;;;0.98;;
71413;SDS011;59226;53.212;5.728;2023-02-28T11:39:18;3.90;;;1.48;;
71413;SDS011;59226;53.212;5.728;2023-02-28T11:42:05;2.20;;;1.00;;
71413;SDS011;59226;53.212;5.728;2023-02-28T11:47:01;3.53;;;1.77;;
71413;SDS011;59226;53.212;5.728;2023-02-28T11:51:59;4.15;;;1.60;;
71413;SDS011;59226;53.212;5.728;2023-02-28T11:54:32;2.95;;;1.08;;
71413;SDS011;59226;53.212;5.728;2023-02-28T12:00:06;2.65;;;1.10;;
71413;SDS011;59226;53.212;5.728;2023-02-28T12:02:44;3.00;;;1.17;;
71413;SDS011;59226;53.212;5.728;2023-02-28T12:05:30;2.97;;;0.93;;
71413;SDS011;59226;53.212;5.728;2023-02-28T12:08:03;7.05;;;1.55;;
71413;SDS011;59226;53.212;5.728;2023-02-28T12:10:35;2.63;;;1.02;;
71413;SDS011;59226;53.212;5.728;2023-02-28T12:13:21;2.95;;;1.27;;
71413;SDS011;59226;53.212;5.728;2023-02-28T12:18:34;2.53;;;1.13;;
71413;SDS011;59226;53.212;5.728;2023-02-28T12:23:48;2.45;;;1.20;;
71413;SDS011;59226;53.212;5.728;2023-02-28T12:28:45;2.93;;;1.13;;
71413;SDS011;59226;53.212;5.728;2023-02-28T12:33:38;6.23;;;1.20;;
71413;SDS011;59226;53.212;5.728;2023-02-28T12:36:14;9.32;;;1.35;;
71413;SDS011;59226;53.212;5.728;2023-02-28T12:38:52;3.05;;;1.10;;
71413;SDS011;59226;53.212;5.728;2023-02-28T12:41:19;2.88;;;1.10;;
71413;SDS011;59226;53.212;5.728;2023-02-28T12:43:51;3.22;;;1.40;;
71413;SDS011;59226;53.212;5.728;2023-02-28T12:46:51;2.83;;;0.93;;
71413;SDS011;59226;53.212;5.728;2023-02-28T12:49:16;2.05;;;0.90;;
71413;SDS011;59226;53.212;5.728;2023-02-28T12:51:43;7.20;;;1.02;;
71413;SDS011;59226;53.212;5.728;2023-02-28T13:02:12;2.20;;;1.23;;
71413;SDS011;59226;53.212;5.728;2023-02-28T13:07:36;3.50;;;1.60;;
71413;SDS011;59226;53.212;5.728;2023-02-28T13:10:06;2.55;;;1.08;;
71413;SDS011;59226;53.212;5.728;2023-02-28T13:12:32;4.67;;;1.63;;
71413;SDS011;59226;53.212;5.728;2023-02-28T13:17:29;3.03;;;1.27;;
71413;SDS011;59226;53.212;5.728;2023-02-28T13:22:20;2.70;;;1.07;;
71413;SDS011;59226;53.212;5.728;2023-02-28T13:25:00;2.22;;;0.95;;
71413;SDS011;59226;53.212;5.728;2023-02-28T13:27:38;3.27;;;1.10;;
71413;SDS011;59226;53.212;5.728;2023-02-28T13:33:04;4.72;;;1.80;;
71413;SDS011;59226;53.212;5.728;2023-02-28T13:35:35;2.03;;;0.75;;
71413;SDS011;59226;53.212;5.728;2023-02-28T13:38:18;1.73;;;0.70;;
71413;SDS011;59226;53.212;5.728;2023-02-28T13:40:46;2.17;;;1.20;;
71413;SDS011;59226;53.212;5.728;2023-02-28T13:43:11;3.33;;;1.20;;
71413;SDS011;59226;53.212;5.728;2023-02-28T13:45:44;3.40;;;1.53;;
71413;SDS011;59226;53.212;5.728;2023-02-28T13:48:26;3.55;;;1.40;;
71413;SDS011;59226;53.212;5.728;2023-02-28T13:50:52;2.75;;;1.15;;
71413;SDS011;59226;53.212;5.728;2023-02-28T13:56:09;3.33;;;1.05;;
71413;SDS011;59226;53.212;5.728;2023-02-28T13:58:38;1.65;;;0.80;;
71413;SDS011;59226;53.212;5.728;2023-02-28T14:06:32;3.42;;;1.10;;
71413;SDS011;59226;53.212;5.728;2023-02-28T14:11:24;3.30;;;1.23;;
71413;SDS011;59226;53.212;5.728;2023-02-28T14:13:50;2.65;;;1.25;;
71413;SDS011;59226;53.212;5.728;2023-02-28T14:16:16;7.10;;;1.47;;
71413;SDS011;59226;53.212;5.728;2023-02-28T14:18:49;4.00;;;1.47;;
71413;SDS011;59226;53.212;5.728;2023-02-28T14:29:01;2.87;;;1.20;;
71413;SDS011;59226;53.212;5.728;2023-02-28T14:31:36;3.60;;;1.13;;
71413;SDS011;59226;53.212;5.728;2023-02-28T14:36:38;2.97;;;1.40;;
71413;SDS011;59226;53.212;5.728;2023-02-28T14:39:05;2.22;;;1.13;;
71413;SDS011;59226;53.212;5.728;2023-02-28T14:41:32;3.85;;;1.02;;
71413;SDS011;59226;53.212;5.728;2023-02-28T14:44:00;1.95;;;0.85;;
71413;SDS011;59226;53.212;5.728;2023-02-28T14:46:28;2.50;;;0.97;;
71413;SDS011;59226;53.212;5.728;2023-02-28T14:48:55;3.63;;;1.15;;
71413;SDS011;59226;53.212;5.728;2023-02-28T14:51:21;2.63;;;1.13;;
71413;SDS011;59226;53.212;5.728;2023-02-28T14:53:51;4.40;;;1.60;;
71413;SDS011;59226;53.212;5.728;2023-02-28T14:56:28;3.08;;;1.38;;
71413;SDS011;59226;53.212;5.728;2023-02-28T14:58:56;3.83;;;1.10;;
71413;SDS011;59226;53.212;5.728;2023-02-28T15:01:22;6.73;;;1.43;;
71413;SDS011;59226;53.212;5.728;2023-02-28T15:03:47;3.30;;;1.25;;
71413;SDS011;59226;53.212;5.728;2023-02-28T15:06:16;3.27;;;1.10;;
71413;SDS011;59226;53.212;5.728;2023-02-28T15:08:43;2.05;;;1.30;;
71413;SDS011;59226;53.212;5.728;2023-02-28T15:11:11;5.07;;;1.40;;
71413;SDS011;59226;53.212;5.728;2023-02-28T15:13:43;4.22;;;1.48;;
71413;SDS011;59226;53.212;5.728;2023-02-28T15:18:43;4.93;;;1.80;;
71413;SDS011;59226;53.212;5.728;2023-02-28T15:21:13;2.80;;;1.23;;
71413;SDS011;59226;53.212;5.728;2023-02-28T15:23:40;3.53;;;1.48;;
71413;SDS011;59226;53.212;5.728;2023-02-28T15:26:09;1.77;;;0.77;;
71413;SDS011;59226;53.212;5.728;2023-02-28T15:28:36;4.17;;;2.10;;
71413;SDS011;59226;53.212;5.728;2023-02-28T15:31:25;4.43;;;2.13;;
71413;SDS011;59226;53.212;5.728;2023-02-28T15:33:57;3.25;;;1.05;;
71413;SDS011;59226;53.212;5.728;2023-02-28T15:36:28;3.83;;;1.60;;
71413;SDS011;59226;53.212;5.728;2023-02-28T15:38:53;3.95;;;2.17;;
71413;SDS011;59226;53.212;5.728;2023-02-28T15:41:29;5.37;;;2.37;;
71413;SDS011;59226;53.212;5.728;2023-02-28T15:46:38;4.15;;;1.65;;
71413;SDS011;59226;53.212;5.728;2023-02-28T15:49:03;5.40;;;2.10;;
71413;SDS011;59226;53.212;5.728;2023-02-28T15:51:33;5.50;;;1.53;;
71413;SDS011;59226;53.212;5.728;2023-02-28T15:53:59;2.00;;;1.17;;
71413;SDS011;59226;53.212;5.728;2023-02-28T15:56:26;2.83;;;1.45;;
71413;SDS011;59226;53.212;5.728;2023-02-28T15:58:55;8.75;;;2.78;;
71413;SDS011;59226;53.212;5.728;2023-02-28T16:03:50;2.60;;;1.20;;
71413;SDS011;59226;53.212;5.728;2023-02-28T16:06:21;5.40;;;2.03;;
71413;SDS011;59226;53.212;5.728;2023-02-28T16:08:48;4.95;;;2.47;;
71413;SDS011;59226;53.212;5.728;2023-02-28T16:11:16;3.40;;;2.05;;
71413;SDS011;59226;53.212;5.728;2023-02-28T16:13:41;6.60;;;2.03;;
71413;SDS011;59226;53.212;5.728;2023-02-28T16:16:06;2.40;;;1.40;;
71413;SDS011;59226;53.212;5.728;2023-02-28T16:18:31;5.77;;;2.10;;
71413;SDS011;59226;53.212;5.728;2023-02-28T16:20:57;1.27;;;0.60;;
71413;SDS011;59226;53.212;5.728;2023-02-28T16:23:22;5.50;;;1.90;;
71413;SDS011;59226;53.212;5.728;2023-02-28T16:25:47;3.27;;;1.97;;
71413;SDS011;59226;53.212;5.728;2023-02-28T16:30:44;3.22;;;1.50;;
71413;SDS011;59226;53.212;5.728;2023-02-28T16:33:09;4.30;;;1.93;;
71413;SDS011;59226;53.212;5.728;2023-02-28T16:35:34;2.67;;;1.03;;